Time;durP1;ratioP1;P1;durP2;ratioP2;P2;SDS_P1;SDS_P2;PMS_P1;PMS_P2;Temp;Humidity;BMP_temperature;BMP_pressure;BME280_temperature;BME280_humidity;BME280_pressure;Samples;Min_cycle;Max_cycle;Signal;HPM_P1;HPM_P2
2021/06/27 00:01:51;;;;;;;18.02;12.55;;;;;;;16.48;73.60;101568.09;5053435;28;20025;-75
2021/06/27 00:04:18;;;;;;;18.42;12.27;;;;;;;16.44;73.79;101567.94;5054620;28;20163;-74
2021/06/27 00:06:44;;;;;;;19.27;12.20;;;;;;;16.39;73.71;101561.63;5054493;28;20020;-75
2021/06/27 00:09:10;;;;;;;17.95;11.90;;;;;;;16.32;74.05;101565.72;5053566;28;20374;-74
2021/06/27 00:11:36;;;;;;;18.73;12.00;;;;;;;16.31;74.49;101563.94;5053155;28;20025;-75
2021/06/27 00:14:02;;;;;;;18.13;13.25;;;;;;;16.27;74.34;101562.91;5053080;28;20049;-75
2021/06/27 00:16:29;;;;;;;18.25;11.98;;;;;;;16.24;74.62;101562.78;5053159;28;20071;-75
2021/06/27 00:18:55;;;;;;;17.02;11.98;;;;;;;16.20;74.71;101561.78;5054353;28;20096;-75
2021/06/27 00:21:21;;;;;;;16.55;12.02;;;;;;;16.17;74.73;101560.75;5053186;28;20021;-75
2021/06/27 00:23:48;;;;;;;15.95;12.00;;;;;;;16.10;74.86;101553.53;5036440;28;20134;-75
2021/06/27 00:26:16;;;;;;;15.85;11.20;;;;;;;16.10;74.92;101558.75;5053047;28;20063;-75
2021/06/27 00:28:42;;;;;;;19.25;12.25;;;;;;;16.09;74.83;101554.38;5054176;28;20017;-75
2021/06/27 00:31:08;;;;;;;18.70;12.38;;;;;;;16.03;74.98;101550.69;5053170;28;20031;-75
2021/06/27 00:33:34;;;;;;;18.30;12.50;;;;;;;16.00;75.37;101553.16;5054033;28;20052;-75
2021/06/27 00:35:59;;;;;;;16.65;11.77;;;;;;;15.96;75.71;101556.47;5054130;28;20430;-75
2021/06/27 00:38:25;;;;;;;18.52;12.55;;;;;;;15.98;75.39;101544.41;5054007;28;20120;-75
2021/06/27 00:40:51;;;;;;;18.98;12.35;;;;;;;15.95;75.65;101546.91;5052550;28;20099;-75
2021/06/27 00:43:17;;;;;;;21.70;13.13;;;;;;;15.92;75.55;101549.38;5052732;28;20087;-75
2021/06/27 00:45:43;;;;;;;17.67;12.65;;;;;;;15.88;75.85;101552.66;5053854;28;20459;-76
2021/06/27 00:48:09;;;;;;;18.63;12.35;;;;;;;15.88;76.30;101550.06;5052646;28;20082;-75
2021/06/27 00:50:55;;;;;;;20.15;13.35;;;;;;;15.87;76.16;101556.03;5052663;28;20390;-75
2021/06/27 00:53:21;;;;;;;19.35;12.45;;;;;;;15.84;76.07;101555.91;5053130;28;20036;-75
2021/06/27 00:55:54;;;;;;;21.17;13.85;;;;;;;15.81;76.14;101550.59;5053647;28;20466;-75
2021/06/27 00:58:31;;;;;;;19.98;13.43;;;;;;;15.78;76.06;101552.25;5053589;28;20371;-75
2021/06/27 01:00:57;;;;;;;19.33;14.02;;;;;;;15.75;75.96;101557.31;5052532;28;20024;-75
2021/06/27 01:03:23;;;;;;;24.60;14.98;;;;;;;15.73;76.53;101555.44;5052446;28;20017;-75
2021/06/27 01:05:49;;;;;;;20.45;13.55;;;;;;;15.68;76.41;101560.47;5035568;28;20021;-75
2021/06/27 01:08:15;;;;;;;20.27;13.35;;;;;;;15.70;76.57;101553.63;5053411;28;20431;-75
2021/06/27 01:10:41;;;;;;;18.30;11.90;;;;;;;15.73;76.04;101553.75;5053394;28;20021;-75
2021/06/27 01:13:07;;;;;;;18.15;13.05;;;;;;;15.66;75.98;101554.31;5053041;28;20049;-75
2021/06/27 01:15:33;;;;;;;19.23;12.23;;;;;;;15.59;76.30;101549.69;5051824;28;20025;-76
2021/06/27 01:17:58;;;;;;;17.58;12.05;;;;;;;15.50;76.36;101544.09;5051985;28;20021;-76
2021/06/27 01:20:29;;;;;;;18.95;13.02;;;;;;;15.46;76.69;101543.97;5052293;28;20021;-76
2021/06/27 01:22:56;;;;;;;21.13;13.60;;;;;;;15.44;76.67;101540.41;5052095;28;20032;-76
2021/06/27 01:25:34;;;;;;;18.20;12.60;;;;;;;15.42;76.57;101542.06;5051965;28;20025;-75
2021/06/27 01:28:01;;;;;;;22.63;12.60;;;;;;;15.38;76.55;101540.16;5053003;28;20498;-75
2021/06/27 01:30:27;;;;;;;16.65;12.40;;;;;;;15.37;76.45;101548.72;5035116;28;20036;-75
2021/06/27 01:32:55;;;;;;;18.30;13.25;;;;;;;15.39;76.59;101541.91;5052157;28;20021;-75
2021/06/27 01:35:22;;;;;;;16.95;11.85;;;;;;;15.39;76.63;101547.13;5051620;28;20036;-75
2021/06/27 01:37:52;;;;;;;18.00;12.38;;;;;;;15.39;76.33;101549.72;5051847;28;20450;-76
2021/06/27 01:40:17;;;;;;;;;;;;;;;15.37;76.42;101548.72;5035716;28;20055;-76
2021/06/27 01:42:44;;;;;;;20.13;13.40;;;;;;;15.31;76.62;101543.25;5051379;28;20366;-75
2021/06/27 01:45:23;;;;;;;22.95;13.27;;;;;;;15.18;77.43;101547.03;5052101;28;20091;-75
2021/06/27 01:48:04;;;;;;;20.35;13.13;;;;;;;15.16;77.28;101544.34;5052907;28;20115;-76
2021/06/27 01:50:30;;;;;;;19.90;12.82;;;;;;;15.15;77.43;101542.59;5052754;28;20070;-76
2021/06/27 01:52:58;;;;;;;17.88;13.18;;;;;;;15.16;77.38;101549.53;5051675;28;20033;-76
2021/06/27 01:55:24;;;;;;;18.88;13.40;;;;;;;15.16;77.27;101544.34;5052479;28;20033;-75
2021/06/27 01:57:51;;;;;;;19.77;12.63;;;;;;;15.21;77.02;101552.38;5051548;28;20412;-76
2021/06/27 02:00:17;;;;;;;20.05;13.00;;;;;;;15.17;77.00;101546.13;5051198;28;20367;-76
2021/06/27 02:02:43;;;;;;;21.80;13.10;;;;;;;15.18;76.84;101553.09;5051211;28;20524;-76
2021/06/27 02:05:09;;;;;;;18.08;12.32;;;;;;;15.16;76.86;101549.53;5051413;28;20033;-76
2021/06/27 02:07:38;;;;;;;19.02;12.82;;;;;;;15.13;76.98;101544.22;5028689;28;20018;-76
2021/06/27 02:10:13;;;;;;;19.75;13.00;;;;;;;15.09;77.13;101547.50;5032759;28;20041;-76
2021/06/27 02:12:39;;;;;;;19.17;12.57;;;;;;;15.05;77.18;101540.41;5047726;28;20609;-74
2021/06/27 02:15:06;;;;;;;21.15;13.27;;;;;;;15.00;77.31;101541.91;5032349;28;20064;-75
2021/06/27 02:17:31;;;;;;;21.45;13.77;;;;;;;15.08;77.20;101550.91;5032782;28;20080;-76
2021/06/27 02:19:57;;;;;;;22.00;12.80;;;;;;;15.10;77.62;101545.81;5032711;28;20391;-74
2021/06/27 02:22:23;;;;;;;24.40;14.60;;;;;;;15.18;77.59;101545.31;5031320;28;20032;-74
2021/06/27 02:24:49;;;;;;;22.15;15.82;;;;;;;15.24;77.58;101536.03;5032431;28;20030;-69
2021/06/27 02:27:15;;;;;;;19.50;14.20;;;;;;;15.24;77.62;101531.75;5031190;28;20153;-69
2021/06/27 02:29:40;;;;;;;20.10;13.85;;;;;;;15.28;77.54;101527.56;5042414;28;20108;-69
2021/06/27 02:32:06;;;;;;;20.20;14.10;;;;;;;15.25;77.58;101530.00;5040724;28;20067;-69
2021/06/27 02:34:32;;;;;;;19.85;13.90;;;;;;;15.27;77.87;101528.38;5041911;28;20038;-69
2021/06/27 02:36:59;;;;;;;21.55;13.88;;;;;;;15.34;77.76;101527.81;5041009;28;20024;-70
2021/06/27 02:39:25;;;;;;;23.80;14.80;;;;;;;15.46;77.48;101523.19;5045512;28;20036;-70
2021/06/27 02:41:51;;;;;;;21.45;13.38;;;;;;;15.53;77.27;101519.13;5050947;28;20035;-76
2021/06/27 02:44:16;;;;;;;21.83;13.98;;;;;;;15.56;76.99;101523.59;5050845;28;20103;-75
2021/06/27 02:46:42;;;;;;;24.35;14.02;;;;;;;15.65;76.62;101516.19;5052126;28;20021;-76
2021/06/27 02:49:08;;;;;;;22.50;15.10;;;;;;;15.65;76.59;101508.41;5051058;28;20051;-76
2021/06/27 02:51:34;;;;;;;21.23;14.80;;;;;;;15.65;76.55;101513.59;5051104;28;20497;-76
2021/06/27 02:54:00;;;;;;;23.00;14.57;;;;;;;15.63;76.79;101513.50;5052099;28;20025;-76
2021/06/27 02:56:27;;;;;;;21.15;15.43;;;;;;;15.61;76.94;101511.69;5051184;28;20470;-76
2021/06/27 02:58:53;;;;;;;21.30;15.15;;;;;;;15.60;77.23;101505.59;5054707;28;20429;-77
2021/06/27 03:01:19;;;;;;;20.35;14.50;;;;;;;15.64;76.79;101511.81;5054601;28;20025;-76
2021/06/27 03:03:46;;;;;;;25.40;14.85;;;;;;;15.65;77.00;101518.78;5055896;28;20029;-76
2021/06/27 03:06:13;;;;;;;24.20;15.40;;;;;;;15.69;76.87;101518.09;5054636;28;20048;-75
2021/06/27 03:08:40;;;;;;;21.90;14.85;;;;;;;15.69;77.14;101525.88;5054483;28;20075;-75
2021/06/27 03:11:06;;;;;;;23.95;15.57;;;;;;;15.76;76.78;101527.91;5054483;28;20016;-75
2021/06/27 03:13:37;;;;;;;22.33;15.00;;;;;;;15.83;76.67;101528.16;5054483;28;20124;-76
2021/06/27 03:16:05;;;;;;;22.58;15.88;;;;;;;15.93;76.34;101525.16;5054418;28;20029;-76
2021/06/27 03:18:30;;;;;;;24.65;15.90;;;;;;;16.00;76.08;101521.97;5054175;28;20032;-76
2021/06/27 03:20:55;;;;;;;24.35;16.05;;;;;;;16.13;75.70;101522.47;5054547;28;20033;-76
2021/06/27 03:23:21;;;;;;;25.13;16.75;;;;;;;16.20;75.63;101516.69;5055458;28;20021;-76
2021/06/27 03:25:46;;;;;;;25.77;16.88;;;;;;;16.26;75.27;101522.16;5054316;28;20501;-77
2021/06/27 03:28:13;;;;;;;22.63;15.85;;;;;;;16.26;75.19;101523.88;5055074;28;20029;-77
2021/06/27 03:30:38;;;;;;;27.73;17.83;;;;;;;16.24;75.70;101521.19;5037451;28;20478;-77
2021/06/27 03:33:05;;;;;;;24.20;16.75;;;;;;;16.36;75.23;101516.47;5055194;28;20039;-76
2021/06/27 03:35:31;;;;;;;22.13;15.90;;;;;;;16.44;75.41;101523.72;5055127;28;20099;-77
2021/06/27 03:40:28;;;;;;;31.02;17.77;;;;;;;16.58;74.70;101522.53;5055435;28;20029;-76
2021/06/27 03:42:55;;;;;;;22.75;15.77;;;;;;;16.69;74.71;101524.66;5055216;28;20024;-76
2021/06/27 03:45:20;;;;;;;27.85;17.42;;;;;;;16.77;74.53;101528.44;5054139;28;20052;-76
2021/06/27 03:47:46;;;;;;;25.55;16.33;;;;;;;16.84;74.02;101522.66;5055062;28;20061;-76
2021/06/27 03:50:12;;;;;;;24.95;16.42;;;;;;;16.90;73.42;101520.28;5055052;28;20104;-76
2021/06/27 03:52:38;;;;;;;24.90;17.38;;;;;;;17.00;73.34;101515.44;5053589;28;20075;-76
2021/06/27 03:55:06;;;;;;;24.27;16.55;;;;;;;17.11;72.75;101514.13;5053669;28;20478;-76
2021/06/27 03:57:31;;;;;;;24.15;15.98;;;;;;;17.20;72.22;101509.22;5053519;28;20036;-76
2021/06/27 03:59:57;;;;;;;27.73;18.75;;;;;;;17.23;71.91;101513.69;5054804;28;20028;-76
2021/06/27 04:02:22;;;;;;;25.17;17.10;;;;;;;17.28;71.95;101506.91;5054703;28;20033;-76
2021/06/27 04:04:49;;;;;;;26.40;18.33;;;;;;;17.31;71.56;101506.13;5053332;28;20111;-77
2021/06/27 04:07:14;;;;;;;24.75;17.17;;;;;;;17.35;71.59;101508.00;5053312;28;20028;-76
2021/06/27 04:09:40;;;;;;;27.48;17.35;;;;;;;17.38;71.28;101514.22;5053406;28;20021;-77
2021/06/27 04:12:07;;;;;;;28.10;16.83;;;;;;;17.43;71.42;101501.34;5054516;28;20021;-76
2021/06/27 04:14:32;;;;;;;25.40;16.33;;;;;;;17.46;71.12;101501.44;5069886;28;20049;-77
2021/06/27 04:16:58;;;;;;;25.48;15.88;;;;;;;17.51;71.07;101509.44;5074371;28;20082;-76
2021/06/27 04:19:24;;;;;;;28.95;17.30;;;;;;;17.57;70.93;101508.78;5056373;28;20437;-77
2021/06/27 04:21:49;;;;;;;26.80;16.90;;;;;;;17.61;71.05;101515.84;5074266;28;20031;-76
2021/06/27 04:24:16;;;;;;;26.30;16.58;;;;;;;17.66;70.22;101514.28;5039827;28;20024;-76
2021/06/27 04:26:41;;;;;;;27.15;16.98;;;;;;;17.70;69.96;101516.16;5074317;28;20039;-77
2021/06/27 04:29:13;;;;;;;28.48;17.10;;;;;;;17.64;70.64;101510.75;5074054;28;20028;-77
2021/06/27 04:31:43;;;;;;;27.60;17.50;;;;;;;17.72;70.21;101514.50;5056170;28;20091;-77
2021/06/27 04:34:09;;;;;;;27.38;17.05;;;;;;;17.75;70.57;101513.69;5074067;28;20028;-77
2021/06/27 04:36:35;;;;;;;28.27;18.55;;;;;;;17.77;70.52;101514.63;5056087;28;20453;-76
2021/06/27 04:39:00;;;;;;;29.05;19.02;;;;;;;17.77;70.65;101512.94;5074029;28;20038;-77
2021/06/27 04:41:26;;;;;;;28.60;17.85;;;;;;;17.78;70.74;101512.09;5073800;28;20032;-76
2021/06/27 04:43:52;;;;;;;28.77;18.02;;;;;;;17.79;70.12;101508.66;5065664;28;20085;-75
2021/06/27 04:46:17;;;;;;;26.92;17.73;;;;;;;17.85;69.67;101509.69;5057688;28;20029;-76
2021/06/27 04:48:43;;;;;;;29.40;18.65;;;;;;;17.91;69.62;101515.09;5053205;28;20092;-76
2021/06/27 04:51:08;;;;;;;29.00;18.13;;;;;;;17.98;69.32;101519.69;5054809;28;20024;-76
2021/06/27 04:53:34;;;;;;;30.27;18.15;;;;;;;18.00;69.52;101520.66;5053080;28;20112;-76
2021/06/27 04:55:59;;;;;;;26.65;17.33;;;;;;;18.08;68.79;101513.97;5053571;28;20021;-76
2021/06/27 04:58:26;;;;;;;27.50;17.85;;;;;;;18.16;68.81;101518.53;5072624;28;20043;-75
2021/06/27 05:00:52;;;;;;;31.23;17.52;;;;;;;18.19;68.78;101516.03;5055756;28;20386;-75
2021/06/27 05:03:17;;;;;;;30.25;18.30;;;;;;;18.19;68.94;101518.63;5055729;28;20021;-76
2021/06/27 05:05:42;;;;;;;30.52;18.80;;;;;;;18.22;68.99;101522.25;5055720;28;20485;-76
2021/06/27 05:08:08;;;;;;;29.70;17.30;;;;;;;18.30;68.83;101525.06;5073409;28;20017;-76
2021/06/27 05:10:34;;;;;;;27.30;17.13;;;;;;;18.35;68.91;101528.72;5055608;28;20035;-76
2021/06/27 05:12:59;;;;;;;28.67;16.95;;;;;;;18.47;68.58;101527.31;5055243;28;20470;-76
2021/06/27 05:15:25;;;;;;;31.42;19.02;;;;;;;18.42;67.88;101531.50;5073317;28;20210;-75
2021/06/27 05:17:50;;;;;;;27.90;17.75;;;;;;;18.49;67.11;101525.63;5073198;28;20462;-75
2021/06/27 05:20:15;;;;;;;26.05;16.70;;;;;;;18.47;66.94;101527.31;5072430;28;20032;-75
2021/06/27 05:22:42;;;;;;;27.02;17.38;;;;;;;18.42;67.21;101528.91;5055626;28;20139;-74
2021/06/27 05:25:08;;;;;;;27.77;17.02;;;;;;;18.56;67.27;101524.13;5073209;28;20067;-75
2021/06/27 05:27:34;;;;;;;24.30;16.55;;;;;;;18.64;66.80;101520.91;5055104;28;20039;-75
2021/06/27 05:30:00;;;;;;;25.15;16.35;;;;;;;18.74;67.19;101523.78;5072886;28;20024;-76
2021/06/27 05:32:25;;;;;;;24.65;17.27;;;;;;;18.85;67.41;101519.78;5051729;28;20025;-75
2021/06/27 05:34:51;;;;;;;24.25;16.20;;;;;;;18.91;67.11;101525.16;5065265;28;20047;-77
2021/06/27 05:37:16;;;;;;;23.77;15.18;;;;;;;19.00;67.02;101513.25;5063450;28;20029;-76
2021/06/27 05:39:42;;;;;;;26.70;17.17;;;;;;;19.05;66.56;101511.66;5061544;28;20060;-76
2021/06/27 05:42:08;;;;;;;23.70;15.60;;;;;;;18.99;66.02;101507.13;5062803;28;20073;-76
2021/06/27 05:44:34;;;;;;;26.85;17.15;;;;;;;18.77;65.92;101516.06;5052005;28;20024;-76
2021/06/27 05:46:59;;;;;;;24.55;15.65;;;;;;;18.85;66.34;101514.56;5052924;28;20099;-76
2021/06/27 05:49:25;;;;;;;26.63;16.58;;;;;;;19.02;65.73;101506.34;5053630;28;20021;-76
2021/06/27 05:51:50;;;;;;;22.50;15.48;;;;;;;19.11;64.63;101506.59;5051575;28;20017;-76
2021/06/27 05:54:16;;;;;;;30.02;16.35;;;;;;;19.04;64.93;101512.50;5062788;28;20032;-77
2021/06/27 05:56:41;;;;;;;23.92;16.05;;;;;;;19.25;64.46;101520.06;5052894;28;20035;-76
2021/06/27 05:59:07;;;;;;;24.52;15.77;;;;;;;19.42;63.71;101507.44;5051758;28;20029;-75
2021/06/27 06:01:33;;;;;;;29.23;16.17;;;;;;;19.06;64.03;101508.19;5046334;28;20032;-75
2021/06/27 06:03:58;;;;;;;23.48;15.65;;;;;;;19.35;64.06;101515.94;5066887;28;20070;-76
2021/06/27 06:06:24;;;;;;;25.33;16.08;;;;;;;19.72;63.77;101516.94;5061346;28;20052;-76
2021/06/27 06:08:50;;;;;;;22.60;16.13;;;;;;;19.84;62.26;101517.25;5051413;28;20057;-76
2021/06/27 06:11:16;;;;;;;27.60;17.73;;;;;;;19.65;61.91;101520.25;5051355;28;20458;-76
2021/06/27 06:13:42;;;;;;;33.45;18.42;;;;;;;19.63;63.16;101514.97;5051096;28;20045;-76
2021/06/27 06:16:08;;;;;;;26.42;16.88;;;;;;;20.07;62.88;101522.16;5052279;28;20098;-75
2021/06/27 06:18:35;;;;;;;24.27;16.02;;;;;;;20.56;61.46;101524.13;5051353;28;20029;-76
2021/06/27 06:21:01;;;;;;;25.83;16.58;;;;;;;20.82;60.81;101521.25;5054328;28;20024;-77
2021/06/27 06:23:27;;;;;;;27.13;17.02;;;;;;;20.83;59.65;101528.25;5054343;28;20038;-77
2021/06/27 06:25:53;;;;;;;25.02;15.77;;;;;;;20.84;60.00;101530.03;5071698;28;20024;-77
2021/06/27 06:28:20;;;;;;;26.80;16.80;;;;;;;20.90;59.46;101524.91;5054239;28;20036;-77
2021/06/27 06:30:46;;;;;;;22.00;15.68;;;;;;;20.93;59.99;101535.44;5055111;28;20050;-77
2021/06/27 06:33:11;;;;;;;28.88;17.17;;;;;;;20.79;59.74;101529.03;5058436;28;20031;-77
2021/06/27 06:35:41;;;;;;;26.13;16.25;;;;;;;20.80;60.72;101533.44;5040238;28;20111;-77
2021/06/27 06:38:08;;;;;;;26.63;17.92;;;;;;;20.86;60.67;101529.19;5056604;28;20086;-77
2021/06/27 06:40:34;;;;;;;25.35;17.23;;;;;;;21.04;59.82;101526.91;5074660;28;20104;-78
2021/06/27 06:43:01;;;;;;;30.30;17.90;;;;;;;21.19;59.15;101521.97;5074627;28;20032;-78
2021/06/27 06:45:26;;;;;;;27.55;17.80;;;;;;;21.40;59.53;101525.84;5056774;28;20056;-78
2021/06/27 06:47:52;;;;;;;24.08;16.20;;;;;;;21.43;58.30;101525.91;5056755;28;20059;-77
2021/06/27 06:50:17;;;;;;;26.52;16.88;;;;;;;21.60;57.77;101519.22;5074391;28;20028;-77
2021/06/27 06:52:43;;;;;;;23.92;16.80;;;;;;;21.59;57.74;101516.59;5056594;28;20030;-77
2021/06/27 06:55:09;;;;;;;22.25;15.07;;;;;;;21.81;57.25;101515.25;5056515;28;20028;-77
2021/06/27 06:57:35;;;;;;;27.05;17.30;;;;;;;21.68;55.93;101510.66;5056520;28;20039;-77
2021/06/27 07:00:00;;;;;;;23.73;16.73;;;;;;;21.25;57.58;101513.38;5056622;28;20358;-78
2021/06/27 07:02:26;;;;;;;24.92;17.17;;;;;;;21.28;58.51;101511.66;5052688;28;20035;-77
2021/06/27 07:04:51;;;;;;;27.23;18.48;;;;;;;21.31;58.58;101516.97;5055289;28;20033;-75
2021/06/27 07:07:17;;;;;;;25.27;17.35;;;;;;;21.06;58.30;101514.75;5058411;28;20113;-75
2021/06/27 07:09:42;;;;;;;24.17;16.52;;;;;;;21.20;57.80;101515.88;5032381;28;20089;-76
2021/06/27 07:12:09;;;;;;;22.73;16.17;;;;;;;21.21;58.13;101520.28;5064221;28;20021;-75
2021/06/27 07:14:35;;;;;;;28.35;17.80;;;;;;;21.34;57.92;101520.50;5056188;28;20124;-75
2021/06/27 07:17:01;;;;;;;22.08;14.98;;;;;;;22.00;56.60;101519.03;5054657;28;20107;-77
2021/06/27 07:19:26;;;;;;;28.00;15.88;;;;;;;22.29;55.37;101520.34;5037716;28;20413;-76
2021/06/27 07:21:51;;;;;;;27.35;17.50;;;;;;;22.20;56.74;101520.22;5045672;28;20379;-76
2021/06/27 07:24:17;;;;;;;23.23;15.95;;;;;;;22.41;55.33;101530.16;5055069;28;20486;-76
2021/06/27 07:26:43;;;;;;;23.58;16.75;;;;;;;21.99;55.95;101511.16;5039936;28;20032;-75
2021/06/27 07:29:10;;;;;;;26.55;15.43;;;;;;;22.27;55.38;101522.97;5070338;28;20025;-75
2021/06/27 07:31:35;;;;;;;18.05;12.27;;;;;;;22.73;54.41;101521.88;5053113;28;20032;-76
2021/06/27 07:34:01;;;;;;;20.52;14.30;;;;;;;22.14;55.53;101515.75;5061953;28;20031;-75
2021/06/27 07:36:28;;;;;;;22.23;15.50;;;;;;;22.46;54.56;101524.13;5064134;28;20096;-76
2021/06/27 07:38:54;;;;;;;23.48;15.32;;;;;;;22.57;54.86;101526.03;5051786;28;20082;-77
2021/06/27 07:41:20;;;;;;;21.05;14.88;;;;;;;22.76;54.93;101527.16;5052356;28;20110;-76
2021/06/27 07:43:48;;;;;;;32.28;16.13;;;;;;;22.68;54.03;101532.28;5052964;28;20469;-75
2021/06/27 07:46:14;;;;;;;22.08;15.15;;;;;;;22.84;55.18;101519.38;5036092;28;20090;-75
2021/06/27 07:48:40;;;;;;;19.25;14.40;;;;;;;23.24;53.84;101514.63;5052385;28;20021;-75
2021/06/27 07:51:05;;;;;;;21.50;14.48;;;;;;;23.67;52.60;101510.63;5052405;28;20497;-76
2021/06/27 07:53:30;;;;;;;20.75;13.38;;;;;;;23.96;51.19;101515.25;5053878;28;20121;-76
2021/06/27 07:55:56;;;;;;;22.50;14.50;;;;;;;23.54;51.05;101517.53;5053600;28;20071;-76
2021/06/27 07:58:21;;;;;;;18.42;14.00;;;;;;;23.27;52.29;101514.66;5053812;28;20029;-76
2021/06/27 08:00:47;;;;;;;22.13;14.73;;;;;;;23.22;52.29;101511.06;5053588;28;20154;-76
2021/06/27 08:03:12;;;;;;;16.85;11.68;;;;;;;23.58;52.66;101509.69;5053373;28;20036;-76
2021/06/27 08:05:37;;;;;;;17.30;13.13;;;;;;;24.04;51.87;101498.69;5053199;28;20114;-75
2021/06/27 08:08:04;;;;;;;20.85;13.65;;;;;;;24.08;50.33;101510.13;5053320;28;20036;-75
2021/06/27 08:10:29;;;;;;;26.40;13.77;;;;;;;24.20;50.04;101499.66;5053160;28;20028;-75
2021/06/27 08:12:55;;;;;;;20.15;13.35;;;;;;;24.26;50.32;101513.72;5035214;28;20021;-75
2021/06/27 08:15:21;;;;;;;17.65;12.70;;;;;;;24.80;49.29;101509.63;5052881;28;20049;-76
2021/06/27 08:17:49;;;;;;;19.55;12.77;;;;;;;25.11;48.19;101497.44;5051692;28;20078;-75
2021/06/27 08:20:16;;;;;;;20.05;13.15;;;;;;;24.83;48.51;101505.25;5052543;28;20025;-74
2021/06/27 08:22:42;;;;;;;19.08;13.25;;;;;;;24.44;48.28;101503.31;5052294;28;20029;-74
2021/06/27 08:25:09;;;;;;;17.88;13.00;;;;;;;24.76;48.69;101502.59;5041628;28;20086;-78
2021/06/27 08:27:35;;;;;;;18.38;12.93;;;;;;;25.49;47.66;101501.94;5017152;28;20025;-82
2021/06/27 08:30:04;;;;;;;19.88;14.13;;;;;;;25.69;45.79;101496.66;5053914;28;20094;-86
2021/06/27 08:32:31;;;;;;;16.10;11.75;;;;;;;25.78;46.52;101503.69;5050662;28;20021;-84
2021/06/27 08:34:58;;;;;;;19.80;13.05;;;;;;;25.24;48.21;101508.00;5034663;28;20056;-86
2021/06/27 08:37:24;;;;;;;16.95;12.45;;;;;;;25.40;47.41;101501.88;5035276;28;20029;-84
2021/06/27 08:39:49;;;;;;;20.02;12.63;;;;;;;25.49;46.56;101494.00;5053516;28;20029;-80
2021/06/27 08:42:19;;;;;;;17.30;12.18;;;;;;;25.52;46.98;101491.38;5052000;28;20032;-75
2021/06/27 08:44:44;;;;;;;20.17;13.43;;;;;;;25.51;46.42;101489.63;5034366;28;20070;-82
2021/06/27 08:47:15;;;;;;;18.02;12.18;;;;;;;25.54;46.53;101500.16;5035367;28;20021;-85
2021/06/27 08:49:41;;;;;;;18.50;13.38;;;;;;;24.88;47.35;101498.25;5058654;28;20103;-82
2021/06/27 08:52:13;;;;;;;19.10;12.77;;;;;;;24.93;48.50;101496.53;5027737;28;20100;-82
2021/06/27 08:54:38;;;;;;;17.67;12.23;;;;;;;25.29;48.42;101483.41;5047594;28;20021;-80
2021/06/27 08:57:05;;;;;;;18.27;11.80;;;;;;;25.82;47.33;101494.88;5051013;28;20085;-83
2021/06/27 08:59:31;;;;;;;17.42;11.88;;;;;;;25.96;46.27;101493.09;5051878;28;20017;-86
2021/06/27 09:02:00;;;;;;;19.10;11.20;;;;;;;26.64;44.86;101485.91;5061723;28;20048;-83
2021/06/27 09:04:26;;;;;;;18.23;12.07;;;;;;;26.20;43.99;101483.44;5044478;28;20013;-77
2021/06/27 09:06:52;;;;;;;15.60;11.27;;;;;;;26.93;44.17;101477.00;5027750;28;20029;-81
2021/06/27 09:09:19;;;;;;;16.90;10.88;;;;;;;27.09;43.62;101473.38;5036699;28;20039;-81
2021/06/27 09:11:58;;;;;;;15.95;11.30;;;;;;;27.12;43.41;101483.94;5043986;28;20335;-78
2021/06/27 09:14:34;;;;;;;;;;;;;;;27.15;43.09;101476.88;5028675;28;20449;-77
2021/06/27 09:17:14;;;;;;;17.23;11.32;;;;;;;27.38;41.80;101474.03;5061396;28;19924;-81
2021/06/27 09:19:52;;;;;;;17.08;11.40;;;;;;;27.25;41.22;101468.00;5055313;28;20060;-77
2021/06/27 09:22:33;;;;;;;14.93;10.75;;;;;;;28.04;40.36;101466.41;5053836;28;20052;-76
2021/06/27 09:25:18;;;;;;;14.50;10.55;;;;;;;28.61;39.67;101464.91;5044210;28;20021;-76
2021/06/27 09:27:45;;;;;;;16.00;10.73;;;;;;;29.53;36.12;101462.69;5033105;28;20025;-76
2021/06/27 09:30:19;;;;;;;16.08;10.05;;;;;;;28.38;39.22;101468.75;5050550;28;20098;-76
2021/06/27 09:33:09;;;;;;;13.52;9.85;;;;;;;27.80;40.17;101471.06;5038965;28;20032;-76
2021/06/27 09:35:50;;;;;;;15.88;10.32;;;;;;;28.07;39.45;101463.75;5049798;28;20107;-76
2021/06/27 09:38:41;;;;;;;11.88;8.75;;;;;;;29.21;37.97;101460.56;5053496;28;20085;-75
2021/06/27 09:41:33;;;;;;;11.77;8.98;;;;;;;30.17;36.36;101464.22;5051185;28;20024;-75
2021/06/27 09:44:11;;;;;;;18.90;9.98;;;;;;;32.10;32.39;101459.72;5045471;28;20021;-76
2021/06/27 09:46:40;;;;;;;12.18;8.45;;;;;;;32.03;32.98;101459.91;5050504;28;20043;-75
2021/06/27 09:49:13;;;;;;;15.98;10.73;;;;;;;29.76;35.60;101457.88;5061106;28;20024;-76
2021/06/27 09:51:42;;;;;;;12.68;9.70;;;;;;;28.78;38.76;101457.63;5052314;28;20029;-75
2021/06/27 09:54:15;;;;;;;14.68;10.38;;;;;;;27.69;41.40;101458.81;5062416;28;20028;-76
2021/06/27 09:56:41;;;;;;;16.75;11.18;;;;;;;26.85;43.80;101457.66;5049372;28;20025;-74
2021/06/27 09:59:09;;;;;;;13.15;10.05;;;;;;;32.49;31.67;101464.84;5052252;28;20466;-74
2021/06/27 10:01:36;;;;;;;13.82;9.07;;;;;;;35.63;27.24;101461.66;5063433;28;20454;-74
2021/06/27 10:04:04;;;;;;;14.20;9.93;;;;;;;34.54;27.51;101459.78;5052064;28;20055;-74
2021/06/27 10:06:47;;;;;;;16.65;10.27;;;;;;;30.12;35.27;101460.78;5061270;28;20099;-74
2021/06/27 10:09:16;;;;;;;13.15;9.25;;;;;;;28.46;39.24;101456.28;5052600;28;20029;-74
2021/06/27 10:12:05;;;;;;;15.05;10.20;;;;;;;27.10;41.91;101454.00;5071805;28;20028;-74
2021/06/27 10:14:35;;;;;;;;;;;;;;;31.23;35.05;101456.63;5047342;28;20122;-74
2021/06/27 10:17:03;;;;;;;14.35;10.63;;;;;;;31.24;32.52;101461.94;5070962;28;20491;-74
2021/06/27 10:19:29;;;;;;;11.57;8.18;;;;;;;29.05;36.83;101460.78;5070901;28;20035;-74
2021/06/27 10:21:56;;;;;;;14.75;8.55;;;;;;;27.34;40.89;101452.06;5062804;28;20320;-73
2021/06/27 10:24:22;;;;;;;12.68;8.90;;;;;;;33.55;29.86;101469.56;5050903;28;20108;-74
2021/06/27 10:26:48;;;;;;;13.73;7.90;;;;;;;36.57;24.38;101480.66;5034837;28;20104;-74
2021/06/27 10:29:14;;;;;;;11.05;8.00;;;;;;;34.47;27.65;101480.56;5052749;28;20039;-76
2021/06/27 10:31:40;;;;;;;10.77;7.68;;;;;;;36.28;25.27;101469.47;5052010;28;20097;-75
2021/06/27 10:34:06;;;;;;;8.88;6.90;;;;;;;36.95;24.02;101469.00;5052992;28;20056;-77
2021/06/27 10:36:34;;;;;;;10.02;7.68;;;;;;;33.89;27.52;101457.69;5053142;28;20053;-76
2021/06/27 10:39:04;;;;;;;10.25;6.13;;;;;;;38.07;22.54;101461.56;5053288;28;20052;-77
2021/06/27 10:41:49;;;;;;;10.20;6.95;;;;;;;39.10;21.22;101453.16;5049413;28;20448;-76
2021/06/27 10:44:17;;;;;;;8.60;6.38;;;;;;;39.19;20.67;101452.63;5050575;28;20017;-78
2021/06/27 10:46:48;;;;;;;9.75;6.85;;;;;;;38.08;21.36;101457.03;5053393;28;20044;-79
2021/06/27 10:49:32;;;;;;;7.55;5.95;;;;;;;38.21;22.16;101451.84;5055576;28;20359;-81
2021/06/27 10:52:02;;;;;;;8.82;6.50;;;;;;;38.03;21.80;101446.53;5052333;28;20474;-79
2021/06/27 10:54:35;;;;;;;8.77;6.47;;;;;;;37.96;21.87;101445.16;5052712;28;20040;-78
2021/06/27 10:57:04;;;;;;;7.95;5.25;;;;;;;36.44;24.55;101423.16;5048299;28;20029;-81
2021/06/27 10:59:39;;;;;;;9.45;5.85;;;;;;;33.26;28.89;101420.66;5053586;28;20074;-86
2021/06/27 11:02:18;;;;;;;6.82;5.28;;;;;;;32.42;30.15;101423.31;5069993;28;20035;-85
2021/06/27 11:04:44;;;;;;;9.43;5.45;;;;;;;31.76;30.83;101414.47;5065869;28;20219;-88
2021/06/27 11:07:32;;;;;;;6.97;5.35;;;;;;;31.34;31.53;101425.34;5049874;28;20420;-82
2021/06/27 11:10:24;;;;;;;7.38;4.78;;;;;;;30.88;32.30;101409.56;5050436;28;20067;-79
2021/06/27 11:15:22;;;;;;;8.38;6.20;;;;;;;30.10;34.30;101420.09;5040839;28;20038;-76
2021/06/27 11:17:51;;;;;;;11.13;5.80;;;;;;;30.21;35.03;101422.53;5037521;28;20709;-77
2021/06/27 11:20:17;;;;;;;;;;;;;;;30.10;35.43;101410.34;5055454;28;20541;-83